Time;durP1;ratioP1;P1;durP2;ratioP2;P2;SDS_P1;SDS_P2;PMS_P1;PMS_P2;Temp;Humidity;BMP_temperature;BMP_pressure;BME280_temperature;BME280_humidity;BME280_pressure;Samples;Min_cycle;Max_cycle;Signal;HPM_P1;HPM_P2
2023/01/10 08:43:53;;;;;;;11.67;2.70;;;5.40;99.90;;;;;;3280220;27;20230;-71
2023/01/10 08:46:20;;;;;;;8.63;1.87;;;5.50;99.90;;;;;;4897031;29;20228;-70
2023/01/10 08:48:49;;;;;;;6.97;1.60;;;5.40;99.90;;;;;;4899695;29;20701;-72
2023/01/10 08:51:16;;;;;;;7.53;1.53;;;5.50;99.90;;;;;;4916881;29;20244;-72
2023/01/10 08:53:43;;;;;;;9.50;1.77;;;5.50;99.90;;;;;;4908011;29;20210;-72
2023/01/10 08:56:10;;;;;;;5.43;1.20;;;5.50;99.90;;;;;;4901099;29;20225;-72
2023/01/10 08:58:37;;;;;;;12.17;1.73;;;5.50;99.90;;;;;;4900994;29;20256;-71
2023/01/10 09:01:06;;;;;;;10.77;1.63;;;5.50;99.90;;;;;;4901021;29;20206;-72
2023/01/10 09:03:33;;;;;;;9.53;1.73;;;5.50;99.90;;;;;;4900762;29;20218;-72
2023/01/10 09:06:00;;;;;;;6.03;1.40;;;5.60;99.90;;;;;;4888041;29;20207;-73
2023/01/10 09:08:28;;;;;;;8.43;1.90;;;5.70;99.90;;;;;;4881810;29;20222;-71
2023/01/10 09:10:57;;;;;;;8.70;1.37;;;5.70;99.90;;;;;;4881831;29;20671;-71
2023/01/10 09:13:25;;;;;;;5.67;1.30;;;5.70;99.90;;;;;;4882189;29;20211;-71
2023/01/10 09:15:52;;;;;;;6.43;1.80;;;5.80;99.90;;;;;;4881895;29;20218;-72
2023/01/10 09:18:20;;;;;;;9.97;1.37;;;5.90;99.90;;;;;;4898728;29;20238;-72
2023/01/10 09:20:47;;;;;;;9.03;1.93;;;5.90;99.90;;;;;;4900393;29;20245;-72
2023/01/10 09:23:17;;;;;;;5.53;1.30;;;5.90;99.90;;;;;;4900259;29;20214;-72
2023/01/10 09:25:44;;;;;;;8.47;1.40;;;6.00;99.90;;;;;;4899703;29;20678;-72
2023/01/10 09:28:11;;;;;;;3.60;0.87;;;6.10;99.90;;;;;;4895352;29;20210;-73
2023/01/10 09:30:38;;;;;;;12.93;1.83;;;6.20;99.90;;;;;;4895334;29;20249;-71
2023/01/10 09:33:06;;;;;;;9.23;1.70;;;6.30;99.90;;;;;;4899031;29;20221;-71
2023/01/10 09:35:37;;;;;;;8.37;1.20;;;6.20;99.90;;;;;;4899948;29;20214;-72
2023/01/10 09:38:05;;;;;;;7.87;1.10;;;6.30;99.90;;;;;;4896566;29;20242;-71
2023/01/10 09:40:43;;;;;;;8.43;1.17;;;6.40;99.90;;;;;;4899462;29;20234;-71
2023/01/10 09:43:16;;;;;;;9.33;1.83;;;6.40;99.90;;;;;;4899478;29;20232;-71
2023/01/10 09:45:53;;;;;;;6.13;1.00;;;6.50;99.90;;;;;;4900202;29;20214;-72
2023/01/10 09:48:26;;;;;;;5.77;1.27;;;6.60;99.90;;;;;;4900401;29;20213;-72
2023/01/10 09:51:10;;;;;;;5.53;1.00;;;6.60;99.90;;;;;;4899996;29;20217;-69
2023/01/10 09:53:42;;;;;;;8.23;1.30;;;6.60;99.90;;;;;;4900604;29;20221;-70
2023/01/10 09:56:12;;;;;;;5.97;1.10;;;6.50;99.90;;;;;;4899338;29;20210;-71
2023/01/10 09:58:39;;;;;;;5.80;0.80;;;6.50;99.90;;;;;;4899465;29;20234;-70
2023/01/10 10:01:11;;;;;;;8.20;1.53;;;6.50;99.90;;;;;;4898554;29;20199;-70
2023/01/10 10:03:45;;;;;;;2.57;0.97;;;6.60;99.90;;;;;;4907120;29;20209;-70
2023/01/10 10:06:14;;;;;;;6.13;0.80;;;6.70;99.90;;;;;;4918775;29;20214;-69
2023/01/10 10:08:43;;;;;;;2.57;1.00;;;6.80;99.90;;;;;;4903444;29;20219;-70
2023/01/10 10:11:36;;;;;;;7.20;1.10;;;6.90;99.90;;;;;;4898898;29;20213;-71
2023/01/10 10:14:11;;;;;;;8.03;1.13;;;7.00;99.90;;;;;;4899444;29;20695;-70
2023/01/10 10:17:06;;;;;;;8.80;1.73;;;7.00;99.90;;;;;;4899619;29;20213;-69
2023/01/10 10:19:43;;;;;;;5.67;1.20;;;7.00;99.90;;;;;;4911886;29;20233;-71
2023/01/10 10:22:21;;;;;;;10.93;1.30;;;7.20;99.90;;;;;;4880446;29;20575;-70
2023/01/10 10:25:00;;;;;;;4.63;1.10;;;7.10;99.90;;;;;;4895662;29;20214;-69
2023/01/10 10:27:35;;;;;;;4.03;1.03;;;7.10;99.90;;;;;;4880039;29;20683;-68
2023/01/10 10:30:41;;;;;;;11.00;1.37;;;7.10;99.90;;;;;;4889782;29;20230;-68
2023/01/10 10:33:23;;;;;;;3.70;1.17;;;7.20;99.90;;;;;;4893075;29;20305;-71
2023/01/10 10:35:54;;;;;;;6.93;1.07;;;7.20;99.90;;;;;;4899081;29;20210;-71
2023/01/10 10:38:28;;;;;;;5.53;1.20;;;7.30;99.90;;;;;;4905343;29;20265;-71
2023/01/10 10:40:58;;;;;;;7.03;1.27;;;7.30;99.90;;;;;;4898091;29;20250;-71
2023/01/10 10:43:35;;;;;;;11.07;1.47;;;7.40;99.90;;;;;;4897649;29;20221;-71
2023/01/10 10:46:05;;;;;;;11.13;1.27;;;7.40;99.90;;;;;;4898876;29;20209;-72
2023/01/10 10:48:36;;;;;;;6.80;1.30;;;7.50;99.90;;;;;;4898707;29;20262;-71
2023/01/10 10:51:08;;;;;;;3.80;0.80;;;7.60;99.90;;;;;;4898367;29;20677;-72
2023/01/10 10:53:37;;;;;;;3.77;0.90;;;7.70;99.90;;;;;;4898601;29;20242;-70
2023/01/10 10:56:07;;;;;;;3.30;1.27;;;7.70;99.90;;;;;;4898245;29;20250;-71
2023/01/10 10:58:34;;;;;;;7.00;1.20;;;7.80;99.90;;;;;;4898138;29;20242;-72
2023/01/10 11:01:01;;;;;;;2.90;0.87;;;7.80;99.90;;;;;;4898509;29;20210;-71
2023/01/10 11:03:37;;;;;;;6.60;1.30;;;7.80;99.90;;;;;;4898198;29;20218;-72
2023/01/10 11:06:06;;;;;;;7.00;1.10;;;7.70;99.90;;;;;;4898864;29;20216;-72
2023/01/10 11:08:40;;;;;;;3.53;1.13;;;7.70;99.90;;;;;;4915748;29;20665;-72
2023/01/10 11:11:17;;;;;;;8.77;0.87;;;7.80;99.90;;;;;;4915775;29;20672;-73
2023/01/10 11:13:48;;;;;;;10.77;1.27;;;7.70;99.90;;;;;;4916083;29;20213;-70
2023/01/10 11:16:30;;;;;;;12.13;1.10;;;7.60;99.90;;;;;;4916696;29;20205;-70
2023/01/10 11:19:19;;;;;;;5.37;0.90;;;7.70;99.90;;;;;;4916280;29;20243;-69
2023/01/10 11:21:50;;;;;;;5.47;0.77;;;7.60;99.90;;;;;;4916571;29;20684;-69
2023/01/10 11:24:26;;;;;;;12.13;1.50;;;7.50;99.90;;;;;;4917236;29;20206;-70
2023/01/10 11:26:53;;;;;;;6.37;1.30;;;7.50;99.90;;;;;;4917380;29;20215;-70
2023/01/10 11:29:24;;;;;;;5.63;1.37;;;7.50;99.90;;;;;;4917216;29;20240;-69
2023/01/10 11:31:53;;;;;;;7.77;0.93;;;7.50;99.90;;;;;;4917040;29;20257;-71
2023/01/10 11:34:23;;;;;;;5.80;1.17;;;7.60;99.90;;;;;;4917088;29;20210;-71
2023/01/10 11:36:55;;;;;;;6.60;0.90;;;7.60;99.90;;;;;;4917009;29;20546;-70
2023/01/10 11:39:24;;;;;;;11.07;1.20;;;7.70;99.90;;;;;;4917369;29;20261;-70
2023/01/10 11:41:52;;;;;;;7.23;1.43;;;7.70;99.90;;;;;;4917230;29;20205;-71
2023/01/10 11:44:23;;;;;;;15.70;1.83;;;7.70;99.90;;;;;;4916669;29;20217;-71
2023/01/10 11:46:54;;;;;;;6.90;0.83;;;7.80;99.90;;;;;;4917174;29;20206;-70
2023/01/10 11:49:28;;;;;;;4.23;0.97;;;7.80;99.90;;;;;;4916096;29;20235;-70
2023/01/10 11:52:00;;;;;;;3.90;0.90;;;7.80;99.90;;;;;;4916925;29;20217;-70
2023/01/10 11:54:29;;;;;;;9.40;1.47;;;7.90;99.90;;;;;;4916859;29;20210;-70
2023/01/10 11:56:58;;;;;;;4.90;0.90;;;7.90;99.90;;;;;;4916790;29;20224;-71
2023/01/10 11:59:26;;;;;;;6.43;1.07;;;8.00;99.90;;;;;;4916419;29;20601;-70
2023/01/10 12:01:57;;;;;;;3.47;0.87;;;7.90;99.90;;;;;;4916586;29;20217;-71
2023/01/10 12:04:25;;;;;;;12.37;1.63;;;8.00;99.90;;;;;;4916764;29;20215;-71
2023/01/10 12:06:55;;;;;;;7.90;1.03;;;8.00;99.90;;;;;;4916823;29;20220;-70
2023/01/10 12:09:39;;;;;;;11.00;1.57;;;8.10;99.90;;;;;;4916520;29;20608;-70
2023/01/10 12:12:17;;;;;;;6.80;0.87;;;8.10;99.90;;;;;;4906659;29;20218;-70
2023/01/10 12:14:44;;;;;;;7.27;1.20;;;8.10;99.90;;;;;;4877402;29;20219;-71
2023/01/10 12:17:18;;;;;;;7.13;1.40;;;8.00;99.90;;;;;;4877695;29;20265;-70
2023/01/10 12:19:45;;;;;;;2.80;1.57;;;8.00;99.90;;;;;;4877269;29;20254;-70
2023/01/10 12:22:15;;;;;;;5.83;1.17;;;8.10;99.90;;;;;;4879822;29;20206;-71
2023/01/10 12:24:48;;;;;;;11.17;1.13;;;8.10;99.90;;;;;;4898039;29;20206;-69
2023/01/10 12:27:18;;;;;;;6.07;0.93;;;8.00;99.90;;;;;;4895571;29;20237;-70
2023/01/10 12:29:52;;;;;;;5.47;0.97;;;7.90;99.90;;;;;;4896234;29;20316;-72
2023/01/10 12:32:28;;;;;;;9.33;1.30;;;7.90;99.90;;;;;;4895958;29;20210;-70
2023/01/10 12:35:01;;;;;;;5.67;1.03;;;8.00;99.90;;;;;;4895513;29;20214;-70
2023/01/10 12:37:35;;;;;;;10.90;1.30;;;8.10;99.90;;;;;;4896759;29;20241;-72
2023/01/10 12:40:13;;;;;;;7.57;1.10;;;8.00;99.90;;;;;;4896533;29;20238;-71
2023/01/10 12:45:42;;;;;;;7.63;1.30;;;7.90;99.90;;;;;;4895818;29;20210;-69
2023/01/10 12:48:17;;;;;;;3.87;0.70;;;7.90;99.90;;;;;;4896012;29;20214;-72
2023/01/10 12:50:47;;;;;;;5.20;1.37;;;7.80;99.90;;;;;;4895305;29;20601;-70
2023/01/10 12:53:23;;;;;;;8.20;1.07;;;7.80;99.90;;;;;;4896076;29;20210;-69
2023/01/10 12:55:55;;;;;;;9.23;1.13;;;7.80;99.90;;;;;;4896169;29;20297;-72
2023/01/10 12:58:30;;;;;;;2.37;0.83;;;8.00;99.90;;;;;;4895672;29;20238;-70
2023/01/10 13:00:59;;;;;;;7.00;1.40;;;8.00;99.90;;;;;;4896321;29;20210;-71
2023/01/10 13:03:30;;;;;;;13.50;1.53;;;7.90;99.90;;;;;;4899007;29;20206;-71
2023/01/10 13:05:58;;;;;;;6.77;0.80;;;7.90;99.90;;;;;;4898876;29;20229;-71
2023/01/10 13:08:27;;;;;;;8.23;1.40;;;7.90;99.90;;;;;;4898853;29;20217;-70
2023/01/10 13:10:58;;;;;;;6.23;1.17;;;7.90;99.90;;;;;;4900149;29;20221;-72
2023/01/10 13:13:33;;;;;;;11.93;1.70;;;7.60;99.90;;;;;;4908851;29;20215;-71
2023/01/10 13:16:15;;;;;;;5.13;1.27;;;7.50;99.90;;;;;;4907948;29;20206;-71
2023/01/10 13:19:00;;;;;;;9.10;1.87;;;7.60;99.90;;;;;;4900206;29;20246;-72
2023/01/10 13:21:28;;;;;;;9.10;1.43;;;7.70;99.90;;;;;;4900209;29;20224;-72
2023/01/10 13:23:59;;;;;;;4.20;0.87;;;7.60;99.90;;;;;;4900557;29;20214;-71
2023/01/10 13:26:45;;;;;;;3.37;1.20;;;7.50;99.90;;;;;;4900529;29;20214;-72
2023/01/10 13:29:17;;;;;;;7.63;1.20;;;7.50;99.90;;;;;;4900246;29;20226;-72
2023/01/10 13:31:44;;;;;;;12.17;1.43;;;7.60;99.90;;;;;;4900629;29;20217;-70
2023/01/10 13:34:12;;;;;;;11.83;1.20;;;7.50;99.90;;;;;;4900545;29;20218;-70
2023/01/10 13:36:42;;;;;;;5.17;1.30;;;7.50;99.90;;;;;;4899817;29;20220;-72
2023/01/10 13:39:23;;;;;;;8.50;1.13;;;7.40;99.90;;;;;;4899466;29;20246;-70
2023/01/10 13:45:32;;;;;;;17.60;2.17;;;7.30;99.90;;;;;;4899930;29;20213;-70
2023/01/10 13:48:25;;;;;;;7.37;1.30;;;7.20;99.90;;;;;;4899927;29;20230;-70
2023/01/10 13:50:59;;;;;;;4.97;0.87;;;7.20;99.90;;;;;;4899735;29;20658;-71
2023/01/10 13:54:00;;;;;;;7.13;1.47;;;7.20;99.90;;;;;;4900007;29;20210;-70
2023/01/10 13:56:35;;;;;;;5.90;1.20;;;7.10;99.90;;;;;;4899274;29;20213;-72
2023/01/10 14:04:45;;;;;;;4.07;0.97;;;7.00;99.90;;;;;;4895162;29;20211;-70
2023/01/10 14:07:20;;;;;;;4.37;0.90;;;6.90;99.90;;;;;;4899190;29;20301;-70
2023/01/10 14:09:49;;;;;;;3.90;1.00;;;7.00;99.90;;;;;;4899237;29;20233;-71
2023/01/10 14:12:20;;;;;;;3.20;0.80;;;7.00;99.90;;;;;;4898275;29;20566;-70
2023/01/10 14:14:57;;;;;;;10.23;1.30;;;7.00;99.90;;;;;;4898609;29;20206;-69
2023/01/10 14:17:26;;;;;;;7.07;1.23;;;6.90;99.90;;;;;;4899192;29;20304;-70
2023/01/10 14:20:18;;;;;;;6.77;1.03;;;6.90;99.90;;;;;;4898905;29;20246;-70
2023/01/10 14:22:58;;;;;;;6.80;1.43;;;6.80;99.90;;;;;;4896569;29;20301;-69
2023/01/10 14:25:27;;;;;;;3.63;0.90;;;6.80;99.90;;;;;;4899078;29;20213;-71
2023/01/10 14:27:55;;;;;;;6.30;0.60;;;6.70;99.90;;;;;;4899349;29;20214;-71
2023/01/10 14:30:27;;;;;;;5.93;1.40;;;6.70;99.90;;;;;;4898980;29;20733;-70
2023/01/10 14:32:57;;;;;;;4.10;1.00;;;6.70;99.90;;;;;;4898922;29;20211;-69
2023/01/10 14:35:32;;;;;;;3.53;1.07;;;6.70;99.90;;;;;;4898613;29;20217;-70
2023/01/10 14:38:01;;;;;;;4.80;1.27;;;6.60;99.90;;;;;;4898576;29;20214;-70
2023/01/10 14:40:36;;;;;;;4.30;0.60;;;6.70;99.90;;;;;;4898718;29;20246;-69
2023/01/10 14:43:07;;;;;;;2.60;0.70;;;6.60;99.90;;;;;;4899250;29;20230;-70
2023/01/10 14:45:43;;;;;;;2.90;0.80;;;6.60;99.90;;;;;;4898983;29;20214;-70
2023/01/10 14:48:29;;;;;;;4.43;0.73;;;6.70;99.90;;;;;;4898886;29;20213;-69
2023/01/10 14:51:20;;;;;;;2.20;0.60;;;6.70;99.90;;;;;;4898883;29;20221;-68
2023/01/10 14:53:48;;;;;;;5.90;1.33;;;6.70;99.90;;;;;;4898742;29;20210;-70
2023/01/10 14:56:20;;;;;;;1.30;0.70;;;6.60;99.90;;;;;;4898807;29;20210;-69
2023/01/10 14:58:46;;;;;;;1.27;0.60;;;6.60;99.90;;;;;;4898597;29;20238;-71
2023/01/10 15:01:21;;;;;;;2.37;0.83;;;6.70;99.90;;;;;;4898374;29;20309;-70
2023/01/10 15:03:49;;;;;;;2.23;0.70;;;6.70;99.90;;;;;;4898250;29;20214;-71
2023/01/10 15:06:16;;;;;;;1.47;0.60;;;6.70;99.90;;;;;;4898440;29;20214;-70
2023/01/10 15:08:42;;;;;;;2.43;0.67;;;6.80;99.90;;;;;;4898412;29;20214;-69
2023/01/10 15:11:12;;;;;;;1.03;0.40;;;6.80;99.90;;;;;;4898551;29;20248;-70
2023/01/10 15:13:47;;;;;;;3.50;0.37;;;6.70;99.90;;;;;;4897924;29;20214;-69
2023/01/10 15:16:19;;;;;;;2.57;0.60;;;6.70;99.90;;;;;;4898530;29;20220;-70
2023/01/10 15:18:46;;;;;;;1.70;0.70;;;6.70;99.90;;;;;;4898201;29;20238;-70
2023/01/10 15:21:14;;;;;;;0.47;0.27;;;6.80;99.90;;;;;;4898073;29;20216;-70
2023/01/10 15:23:43;;;;;;;1.07;0.37;;;6.70;99.90;;;;;;4897966;29;20210;-70
2023/01/10 15:26:14;;;;;;;1.03;0.50;;;6.70;99.90;;;;;;4897908;29;20215;-70
2023/01/10 15:28:42;;;;;;;3.87;0.67;;;6.70;99.90;;;;;;4898019;29;20219;-69
2023/01/10 15:31:15;;;;;;;1.60;0.40;;;6.70;99.90;;;;;;4897935;29;20216;-69
2023/01/10 15:33:45;;;;;;;0.60;0.20;;;6.70;99.90;;;;;;4897758;29;20217;-69
2023/01/10 15:36:15;;;;;;;1.57;0.43;;;6.70;99.90;;;;;;4897690;29;20309;-69
2023/01/10 15:38:45;;;;;;;2.57;0.77;;;6.80;99.90;;;;;;4897436;29;20212;-70
2023/01/10 15:41:18;;;;;;;1.07;0.40;;;6.70;99.90;;;;;;4895541;29;20206;-69
2023/01/10 15:43:48;;;;;;;1.80;0.63;;;6.70;99.90;;;;;;4896516;29;20214;-71
2023/01/10 15:46:20;;;;;;;0.37;0.13;;;6.70;99.90;;;;;;4892955;29;20225;-73
2023/01/10 15:48:58;;;;;;;0.93;0.30;;;6.70;99.90;;;;;;4896330;29;20230;-71
2023/01/10 15:51:28;;;;;;;3.10;0.40;;;6.70;99.90;;;;;;4896547;29;20622;-71
2023/01/10 15:54:02;;;;;;;0.87;0.47;;;6.70;99.90;;;;;;4896351;29;20238;-71
2023/01/10 15:56:33;;;;;;;0.20;0.00;;;6.70;99.90;;;;;;4895663;29;20301;-70
2023/01/10 15:59:01;;;;;;;0.90;0.20;;;6.70;99.90;;;;;;4896067;29;20246;-70
2023/01/10 16:01:29;;;;;;;0.50;0.30;;;6.70;99.90;;;;;;4895351;29;20245;-71
2023/01/10 16:04:00;;;;;;;1.23;0.40;;;6.70;99.90;;;;;;4896471;29;20704;-70
2023/01/10 16:06:30;;;;;;;1.37;0.13;;;6.70;99.90;;;;;;4896256;29;20674;-70
2023/01/10 16:09:00;;;;;;;0.80;0.40;;;6.60;99.90;;;;;;4895550;29;20234;-69
2023/01/10 16:14:20;;;;;;;0.40;0.30;;;6.70;99.90;;;;;;4896315;29;20672;-72
2023/01/10 16:16:46;;;;;;;0.60;0.23;;;6.70;99.90;;;;;;4895854;29;20543;-72
2023/01/10 16:19:15;;;;;;;0.80;0.43;;;6.80;99.90;;;;;;4896525;29;20246;-73
2023/01/10 16:21:46;;;;;;;0.33;0.20;;;6.80;99.90;;;;;;4896229;29;20210;-73
2023/01/10 16:24:18;;;;;;;0.60;0.30;;;6.80;99.90;;;;;;4895778;29;20242;-71
2023/01/10 16:26:45;;;;;;;1.07;0.40;;;6.80;99.90;;;;;;4896241;29;20218;-71
2023/01/10 16:29:12;;;;;;;0.60;0.33;;;6.80;99.90;;;;;;4895748;29;20230;-71
2023/01/10 16:31:39;;;;;;;1.00;0.60;;;6.90;99.90;;;;;;4895766;29;20229;-70
2023/01/10 16:34:06;;;;;;;0.97;0.50;;;6.90;99.90;;;;;;4896552;29;20222;-71
2023/01/10 16:36:35;;;;;;;0.90;0.40;;;6.90;99.90;;;;;;4897814;29;20213;-71
2023/01/10 16:39:06;;;;;;;0.47;0.30;;;6.90;99.90;;;;;;4899486;29;20230;-71
2023/01/10 16:44:18;;;;;;;1.13;0.37;;;6.90;99.90;;;;;;4893848;29;20290;-72
2023/01/10 16:46:46;;;;;;;0.60;0.40;;;7.00;99.90;;;;;;4883268;29;20219;-72
2023/01/10 16:49:14;;;;;;;0.63;0.47;;;7.00;99.90;;;;;;4880904;29;20235;-71
2023/01/10 16:51:42;;;;;;;2.13;0.40;;;7.00;99.90;;;;;;4882853;29;20220;-72
2023/01/10 16:54:14;;;;;;;0.73;0.20;;;7.10;99.90;;;;;;4891851;29;20211;-72
2023/01/10 16:56:43;;;;;;;0.43;0.37;;;7.10;99.90;;;;;;4894631;29;20607;-73
2023/01/10 16:59:11;;;;;;;0.50;0.33;;;7.10;99.90;;;;;;4899117;29;20638;-70
2023/01/10 17:01:40;;;;;;;1.40;0.43;;;7.10;99.90;;;;;;4899981;29;20213;-72
2023/01/10 17:04:08;;;;;;;1.17;0.73;;;7.20;99.90;;;;;;4899889;29;20217;-72
2023/01/10 17:06:35;;;;;;;0.97;0.50;;;7.20;99.90;;;;;;4899353;29;20214;-71
2023/01/10 17:09:04;;;;;;;0.93;0.50;;;7.30;99.90;;;;;;4899299;29;20237;-75
2023/01/10 17:11:34;;;;;;;1.30;0.50;;;7.30;99.90;;;;;;4899088;29;20203;-72
2023/01/10 17:14:03;;;;;;;0.43;0.40;;;7.30;99.90;;;;;;4898503;29;20210;-71
2023/01/10 17:16:29;;;;;;;3.03;0.60;;;7.40;99.90;;;;;;4898994;29;20214;-71
2023/01/10 17:18:56;;;;;;;1.43;0.43;;;7.40;99.90;;;;;;4899249;29;20594;-72
2023/01/10 17:21:24;;;;;;;0.77;0.50;;;7.40;99.90;;;;;;4898589;29;20220;-70
2023/01/10 17:23:51;;;;;;;0.40;0.20;;;7.40;99.90;;;;;;4899009;29;20206;-72
2023/01/10 17:26:20;;;;;;;1.63;0.50;;;7.50;99.90;;;;;;4898697;29;20215;-73
2023/01/10 17:28:48;;;;;;;0.90;0.60;;;7.60;99.90;;;;;;4898614;29;20717;-71
2023/01/10 17:31:15;;;;;;;1.33;0.90;;;7.60;99.90;;;;;;4898971;29;20226;-70
2023/01/10 17:33:42;;;;;;;0.77;0.60;;;7.60;99.90;;;;;;4901471;29;20214;-70
2023/01/10 17:36:10;;;;;;;0.97;0.63;;;7.60;99.90;;;;;;4899329;29;20218;-71
2023/01/10 17:38:38;;;;;;;0.47;0.30;;;7.70;99.90;;;;;;4899281;29;20203;-73
2023/01/10 17:41:06;;;;;;;0.77;0.60;;;7.80;99.90;;;;;;4898803;29;20244;-73
2023/01/10 17:43:34;;;;;;;1.30;0.70;;;7.80;99.90;;;;;;4898403;29;20222;-74
2023/01/10 17:46:04;;;;;;;0.70;0.57;;;7.80;99.90;;;;;;4898568;29;20666;-70
2023/01/10 17:48:33;;;;;;;0.90;0.50;;;7.90;99.90;;;;;;4898246;29;20305;-71
2023/01/10 17:51:01;;;;;;;0.83;0.60;;;7.90;99.90;;;;;;4898581;29;20222;-70
2023/01/10 17:53:28;;;;;;;0.73;0.50;;;7.90;99.90;;;;;;4899905;29;20216;-70
2023/01/10 17:55:55;;;;;;;1.43;0.60;;;7.90;99.90;;;;;;4898717;29;20219;-75
2023/01/10 17:58:22;;;;;;;1.10;0.67;;;7.90;99.90;;;;;;4892755;29;20236;-70
2023/01/10 18:00:50;;;;;;;1.13;0.60;;;7.90;99.90;;;;;;4878322;29;20247;-72
2023/01/10 18:03:17;;;;;;;1.20;0.70;;;8.00;99.90;;;;;;4879920;29;20215;-71
2023/01/10 18:05:51;;;;;;;1.37;0.67;;;8.00;99.90;;;;;;4886403;29;20214;-70
2023/01/10 18:08:18;;;;;;;1.10;0.50;;;8.00;99.90;;;;;;4898677;29;20550;-72
2023/01/10 18:10:46;;;;;;;1.97;0.90;;;8.10;99.90;;;;;;4897579;29;20233;-71
2023/01/10 18:13:14;;;;;;;1.57;0.80;;;8.10;99.90;;;;;;4896959;29;20327;-70
2023/01/10 18:15:42;;;;;;;0.73;0.50;;;8.20;99.90;;;;;;4888091;29;20206;-70
2023/01/10 18:18:11;;;;;;;0.80;0.60;;;8.20;99.90;;;;;;4894448;29;20587;-71
2023/01/10 18:20:40;;;;;;;1.40;0.73;;;8.10;99.90;;;;;;4896824;29;20245;-72
2023/01/10 18:23:22;;;;;;;1.87;0.83;;;8.10;99.90;;;;;;4894770;29;20225;-71
2023/01/10 18:25:54;;;;;;;2.00;0.67;;;8.20;99.90;;;;;;4898334;29;20214;-69
2023/01/10 18:28:22;;;;;;;0.83;0.73;;;8.20;99.90;;;;;;4898733;29;20327;-70
2023/01/10 18:30:48;;;;;;;1.40;0.70;;;8.30;99.90;;;;;;4898999;29;20235;-69
2023/01/10 18:33:17;;;;;;;1.83;0.97;;;8.30;99.90;;;;;;4899374;29;20220;-69
2023/01/10 18:35:43;;;;;;;2.13;1.00;;;8.30;99.90;;;;;;4898988;29;20218;-70
2023/01/10 18:38:11;;;;;;;2.10;0.90;;;8.30;99.90;;;;;;4899210;29;20236;-69
2023/01/10 18:40:40;;;;;;;2.40;1.20;;;8.40;99.90;;;;;;4898788;29;20246;-69
2023/01/10 18:43:12;;;;;;;2.03;1.10;;;8.40;99.90;;;;;;4898621;29;20218;-70
2023/01/10 18:45:40;;;;;;;2.50;1.00;;;8.50;99.90;;;;;;4898757;29;20236;-68
2023/01/10 18:48:07;;;;;;;5.97;1.40;;;8.50;99.90;;;;;;4898922;29;20214;-70
2023/01/10 18:50:35;;;;;;;1.60;1.00;;;8.50;99.90;;;;;;4899111;29;20240;-69
2023/01/10 18:53:03;;;;;;;1.83;0.90;;;8.60;99.90;;;;;;4898838;29;20214;-70
2023/01/10 18:55:29;;;;;;;1.20;0.90;;;8.60;99.90;;;;;;4898700;29;20210;-70
2023/01/10 18:57:56;;;;;;;1.10;0.80;;;8.70;99.90;;;;;;4898633;29;20222;-69
2023/01/10 19:00:23;;;;;;;2.10;0.87;;;8.80;99.90;;;;;;4898205;29;20263;-69
2023/01/10 19:02:52;;;;;;;3.00;1.10;;;8.80;99.90;;;;;;4898390;29;20213;-68
2023/01/10 19:05:19;;;;;;;2.57;0.90;;;8.80;99.90;;;;;;4898330;29;20670;-69
2023/01/10 19:07:48;;;;;;;2.50;1.10;;;8.90;99.90;;;;;;4898642;29;20605;-68
2023/01/10 19:10:16;;;;;;;2.57;0.93;;;9.00;99.90;;;;;;4898526;29;20238;-69
2023/01/10 19:12:43;;;;;;;1.30;1.10;;;9.00;99.90;;;;;;4898338;29;20309;-70
2023/01/10 19:15:10;;;;;;;5.33;1.10;;;9.10;99.90;;;;;;4893327;29;20221;-70
2023/01/10 19:17:37;;;;;;;1.53;1.13;;;9.10;99.90;;;;;;4896843;29;20210;-69
2023/01/10 19:20:05;;;;;;;1.87;0.97;;;9.20;99.90;;;;;;4896811;29;20238;-70
2023/01/10 19:22:31;;;;;;;2.30;1.20;;;9.30;99.90;;;;;;4896354;29;20210;-71
2023/01/10 19:25:00;;;;;;;4.23;1.00;;;9.30;99.90;;;;;;4892435;29;20688;-72
2023/01/10 19:27:27;;;;;;;2.03;1.00;;;9.40;99.90;;;;;;4897062;29;20206;-70
2023/01/10 19:29:54;;;;;;;1.50;0.90;;;9.40;99.90;;;;;;4896102;29;20334;-69
2023/01/10 19:32:21;;;;;;;2.00;1.00;;;9.40;99.90;;;;;;4897293;29;20213;-68
2023/01/10 19:34:47;;;;;;;1.23;0.93;;;9.40;99.90;;;;;;4896515;29;20680;-68
2023/01/10 19:37:14;;;;;;;2.57;0.90;;;9.40;99.90;;;;;;4896297;29;20210;-70
2023/01/10 19:39:41;;;;;;;3.90;0.70;;;9.50;99.90;;;;;;4897210;29;20234;-69
2023/01/10 19:42:09;;;;;;;1.30;0.77;;;9.50;99.90;;;;;;4897993;29;20214;-69
2023/01/10 19:44:36;;;;;;;1.20;0.80;;;9.50;99.90;;;;;;4897466;29;20214;-68
2023/01/10 19:47:03;;;;;;;2.23;1.00;;;9.60;99.90;;;;;;4898067;29;20214;-69
2023/01/10 19:49:35;;;;;;;2.47;0.97;;;9.60;99.90;;;;;;4898106;29;20226;-69
2023/01/10 19:52:03;;;;;;;4.03;0.90;;;9.60;99.90;;;;;;4898038;29;20301;-68
2023/01/10 19:54:31;;;;;;;1.33;0.90;;;9.60;99.90;;;;;;4898047;29;20218;-69
2023/01/10 19:56:58;;;;;;;1.33;0.80;;;9.60;99.90;;;;;;4897995;29;20567;-68
2023/01/10 19:59:28;;;;;;;1.37;0.87;;;9.60;99.90;;;;;;4897680;29;20237;-70
2023/01/10 20:01:55;;;;;;;0.90;0.70;;;9.70;99.90;;;;;;4897525;29;20701;-68
2023/01/10 20:04:22;;;;;;;2.13;0.90;;;9.70;99.90;;;;;;4897772;29;20266;-68
2023/01/10 20:06:49;;;;;;;1.90;1.10;;;9.70;99.90;;;;;;4897752;29;20214;-69
2023/01/10 20:09:16;;;;;;;1.17;0.83;;;9.70;99.90;;;;;;4897693;29;20245;-69
2023/01/10 20:11:45;;;;;;;2.73;1.00;;;9.60;99.90;;;;;;4897354;29;20221;-69
2023/01/10 20:14:13;;;;;;;1.33;0.70;;;9.70;99.90;;;;;;4898175;29;20689;-69
2023/01/10 20:16:42;;;;;;;1.17;0.87;;;9.70;99.90;;;;;;4898046;29;20262;-68
2023/01/10 20:19:10;;;;;;;1.27;0.70;;;9.70;99.90;;;;;;4897930;29;20594;-68
2023/01/10 20:21:37;;;;;;;0.83;0.67;;;9.60;99.90;;;;;;4897724;29;20676;-68
2023/01/10 20:24:08;;;;;;;0.43;0.23;;;9.60;99.90;;;;;;4897520;29;20674;-68
2023/01/10 20:26:35;;;;;;;1.50;0.60;;;9.60;99.90;;;;;;4897693;29;20214;-68
2023/01/10 20:29:03;;;;;;;1.43;0.80;;;9.60;99.90;;;;;;4897637;29;20321;-69
2023/01/10 20:31:31;;;;;;;0.90;0.50;;;9.60;99.90;;;;;;4897897;29;20317;-68
2023/01/10 20:33:59;;;;;;;1.53;0.77;;;9.60;99.90;;;;;;4897615;29;20214;-68
2023/01/10 20:36:27;;;;;;;0.90;0.70;;;9.60;99.90;;;;;;4897419;29;20210;-68
2023/01/10 20:38:54;;;;;;;0.90;0.60;;;9.70;99.90;;;;;;4897415;29;20321;-69
2023/01/10 20:41:23;;;;;;;1.43;0.77;;;9.60;99.90;;;;;;4897610;29;20242;-69
2023/01/10 20:43:51;;;;;;;4.10;1.00;;;9.70;99.90;;;;;;4897416;29;20682;-69
2023/01/10 20:46:19;;;;;;;2.53;0.60;;;9.70;99.90;;;;;;4897860;29;20656;-69
2023/01/10 20:48:47;;;;;;;0.60;0.60;;;9.70;99.90;;;;;;4897277;29;20234;-68
2023/01/10 20:51:19;;;;;;;1.53;0.60;;;9.70;99.90;;;;;;4897460;29;20206;-69
2023/01/10 20:53:46;;;;;;;0.67;0.50;;;9.70;99.90;;;;;;4897691;29;20210;-69
2023/01/10 20:56:15;;;;;;;0.90;0.60;;;9.80;99.90;;;;;;4897475;29;20218;-69
2023/01/10 20:58:42;;;;;;;1.30;0.77;;;9.80;99.90;;;;;;4897464;29;20214;-69
2023/01/10 21:01:09;;;;;;;0.90;0.60;;;9.80;99.90;;;;;;4897401;29;20245;-68
2023/01/10 21:03:37;;;;;;;2.93;0.90;;;9.80;99.90;;;;;;4897364;29;20313;-68
2023/01/10 21:06:04;;;;;;;0.67;0.60;;;9.90;99.90;;;;;;4897585;29;20210;-68
2023/01/10 21:08:32;;;;;;;1.23;0.80;;;9.90;99.90;;;;;;4897293;29;20574;-69
2023/01/10 21:10:59;;;;;;;1.33;0.90;;;9.90;99.90;;;;;;4897296;29;20246;-69
2023/01/10 21:13:26;;;;;;;3.43;0.80;;;10.00;99.90;;;;;;4897239;29;20283;-68
2023/01/10 21:15:55;;;;;;;1.30;0.57;;;10.10;99.90;;;;;;4897250;29;20222;-68
2023/01/10 21:18:24;;;;;;;0.77;0.60;;;10.10;99.90;;;;;;4897121;29;20214;-71
2023/01/10 21:20:54;;;;;;;1.37;0.77;;;10.20;99.90;;;;;;4897305;29;20337;-68
2023/01/10 21:23:23;;;;;;;1.20;0.87;;;10.30;99.90;;;;;;4899823;29;20225;-68
2023/01/10 21:25:51;;;;;;;1.37;1.10;;;10.30;99.90;;;;;;4900587;29;20266;-68
2023/01/10 21:28:19;;;;;;;3.80;0.83;;;10.30;99.90;;;;;;4900479;29;20218;-68
2023/01/10 21:30:46;;;;;;;1.63;0.90;;;10.40;99.90;;;;;;4900207;29;20234;-68
2023/01/10 21:33:13;;;;;;;1.77;0.90;;;10.40;99.90;;;;;;4900563;29;20214;-69
2023/01/10 21:35:40;;;;;;;3.43;0.83;;;10.50;99.90;;;;;;4900643;29;20210;-70
2023/01/10 21:38:07;;;;;;;1.73;0.90;;;10.50;99.90;;;;;;4900466;29;20313;-68
2023/01/10 21:40:34;;;;;;;2.07;1.00;;;10.60;99.90;;;;;;4899993;29;20231;-69
2023/01/10 21:43:02;;;;;;;1.67;0.80;;;10.60;99.90;;;;;;4900239;29;20218;-69
2023/01/10 21:45:29;;;;;;;1.97;1.07;;;10.60;99.90;;;;;;4900082;29;20238;-69
2023/01/10 21:47:56;;;;;;;2.53;1.00;;;10.70;99.90;;;;;;4900447;29;20301;-69
2023/01/10 21:50:23;;;;;;;1.30;1.00;;;10.70;99.90;;;;;;4899965;29;20235;-69
2023/01/10 21:52:50;;;;;;;2.90;0.73;;;10.70;99.90;;;;;;4900312;29;20224;-69
2023/01/10 21:55:17;;;;;;;2.60;0.90;;;10.70;99.90;;;;;;4900060;29;20206;-69
2023/01/10 21:57:44;;;;;;;4.47;0.87;;;10.70;99.90;;;;;;4900013;29;20305;-67
2023/01/10 22:00:13;;;;;;;2.50;0.80;;;10.80;99.90;;;;;;4900130;29;20419;-69
2023/01/10 22:02:41;;;;;;;1.00;0.70;;;10.80;99.90;;;;;;4899999;29;20638;-68
2023/01/10 22:05:09;;;;;;;2.43;0.90;;;10.80;99.90;;;;;;4899784;29;20301;-69
2023/01/10 22:07:37;;;;;;;1.53;0.87;;;10.80;99.90;;;;;;4899760;29;20220;-68
2023/01/10 22:10:04;;;;;;;2.00;0.90;;;10.90;99.90;;;;;;4899645;29;20243;-69
2023/01/10 22:12:31;;;;;;;1.70;0.67;;;10.90;99.90;;;;;;4900088;29;20214;-70